createdAt,value
2023-01-11T00:00:11.723Z,0.70
2023-01-11T00:05:13.160Z,0.60
2023-01-11T00:10:15.073Z,0.70
2023-01-11T00:15:16.721Z,0.70
2023-01-11T00:20:18.844Z,0.50
2023-01-11T00:25:23.184Z,0.43
2023-01-11T00:30:25.751Z,0.88
2023-01-11T00:35:27.932Z,0.60
2023-01-11T00:40:29.364Z,0.90
2023-01-11T00:45:30.860Z,0.85
2023-01-11T00:50:35.592Z,0.70
2023-01-11T00:55:37.151Z,0.55
2023-01-11T01:00:38.805Z,0.38
2023-01-11T01:05:40.451Z,0.60
2023-01-11T01:10:43.254Z,0.50
2023-01-11T01:15:47.716Z,0.57
2023-01-11T01:20:50.893Z,0.50
2023-01-11T01:25:52.470Z,0.60
2023-01-11T01:30:53.985Z,0.60
2023-01-11T01:35:55.513Z,0.60
2023-01-11T01:40:57.929Z,0.80
2023-01-11T01:45:59.424Z,0.80
2023-01-11T01:51:00.993Z,0.70
2023-01-11T01:56:08.704Z,0.77
2023-01-11T02:01:10.453Z,0.50
2023-01-11T02:06:12.137Z,0.45
2023-01-11T02:11:16.221Z,0.60
2023-01-11T02:16:17.794Z,0.57
2023-01-11T02:21:27.282Z,0.40
2023-01-11T02:26:49.798Z,0.70
2023-01-11T02:32:18.392Z,0.40
2023-01-11T02:37:41.436Z,0.57
2023-01-11T02:43:13.076Z,0.40
2023-01-11T02:48:33.975Z,0.50
2023-01-11T02:53:44.985Z,0.40
2023-01-11T02:58:49.541Z,0.32
2023-01-11T03:03:52.500Z,0.50
2023-01-11T03:09:19.173Z,0.50
2023-01-11T03:14:54.932Z,0.40
2023-01-11T03:20:13.310Z,0.80
2023-01-11T03:25:56.893Z,0.40
2023-01-11T03:31:11.251Z,0.32
2023-01-11T03:36:40.440Z,0.40
2023-01-11T03:41:46.345Z,0.50
2023-01-11T03:46:53.108Z,0.50
2023-01-11T03:52:00.717Z,0.70
2023-01-11T03:57:09.084Z,0.50
2023-01-11T04:02:35.073Z,0.57
2023-01-11T04:07:48.666Z,0.60
2023-01-11T04:12:50.280Z,0.80
2023-01-11T04:18:01.332Z,1.38
2023-01-11T04:23:04.404Z,0.80
2023-01-11T04:28:09.105Z,0.70
2023-01-11T04:33:17.112Z,0.70
2023-01-11T04:38:47.778Z,0.63
2023-01-11T04:49:15.493Z,1.15
2023-01-11T04:54:19.846Z,1.35
2023-01-11T04:59:30.267Z,1.50
2023-01-11T05:04:41.051Z,0.90
2023-01-11T05:09:47.508Z,0.90
2023-01-11T05:14:53.857Z,0.82
2023-01-11T05:19:55.377Z,0.70
2023-01-11T05:24:56.900Z,1.05
2023-01-11T05:29:58.469Z,0.60
2023-01-11T05:35:00.215Z,1.00
2023-01-11T05:40:01.774Z,0.70
2023-01-11T05:45:03.708Z,0.82
2023-01-11T05:50:13.212Z,0.93
2023-01-11T05:55:15.113Z,1.07
2023-01-11T06:00:19.266Z,0.85
2023-01-11T06:05:20.832Z,1.00
2023-01-11T06:10:22.745Z,1.13
2023-01-11T06:15:24.263Z,1.73
2023-01-11T06:20:25.730Z,1.15
2023-01-11T06:25:27.992Z,1.33
2023-01-11T06:30:33.035Z,2.05
2023-01-11T06:35:39.717Z,1.10
2023-01-11T06:40:42.388Z,0.95
2023-01-11T06:45:43.926Z,0.90
2023-01-11T06:50:52.911Z,0.93
2023-01-11T06:55:56.102Z,1.65
2023-01-11T07:00:58.549Z,1.40
2023-01-11T07:06:01.760Z,1.50
2023-01-11T07:11:03.217Z,1.42
2023-01-11T07:16:04.979Z,1.30
2023-01-11T07:21:06.573Z,1.30
2023-01-11T07:26:08.001Z,1.75
2023-01-11T07:31:10.728Z,1.98
2023-01-11T07:36:12.387Z,1.85
2023-01-11T07:41:13.759Z,1.17
2023-01-11T07:46:15.276Z,1.33
2023-01-11T07:51:16.896Z,1.38
2023-01-11T07:56:18.259Z,1.10
2023-01-11T08:01:20.525Z,1.38
2023-01-11T08:06:21.984Z,0.90
2023-01-11T08:11:23.817Z,0.90
2023-01-11T08:16:26.152Z,0.93
2023-01-11T08:21:28.309Z,1.10
2023-01-11T08:26:29.749Z,1.23
2023-01-11T08:31:31.121Z,1.25
2023-01-11T08:36:32.624Z,1.30
2023-01-11T08:41:34.270Z,0.80
2023-01-11T08:46:35.716Z,0.80
2023-01-11T08:51:39.869Z,1.13
2023-01-11T08:56:41.293Z,1.42
2023-01-11T09:01:42.812Z,1.35
2023-01-11T09:06:44.252Z,1.70
2023-01-11T09:11:45.770Z,1.30
2023-01-11T09:16:47.312Z,1.60
2023-01-11T09:21:49.115Z,1.65
2023-01-11T09:26:50.633Z,1.13
2023-01-11T09:31:52.114Z,1.77
2023-01-11T09:36:53.854Z,1.40
2023-01-11T09:42:26.511Z,1.42
2023-01-11T09:47:40.647Z,1.60
2023-01-11T09:52:47.450Z,2.00
2023-01-11T09:58:03.196Z,1.92
2023-01-11T10:03:25.397Z,2.45
2023-01-11T10:18:27.370Z,2.38
2023-01-11T10:19:58.049Z,3.47
2023-01-11T10:25:14.326Z,3.70
2023-01-11T10:30:19.299Z,3.63
2023-01-11T10:35:29.422Z,4.57
2023-01-11T10:45:54.228Z,4.28
2023-01-11T10:51:18.708Z,3.90
2023-01-11T10:57:17.301Z,3.80
2023-01-11T11:02:48.017Z,4.35
2023-01-11T11:07:57.315Z,3.70
2023-01-11T11:12:58.677Z,4.20
2023-01-11T11:18:00.034Z,3.65
2023-01-11T11:23:02.409Z,3.33
2023-01-11T11:28:23.573Z,3.35
2023-01-11T11:33:34.395Z,3.63
2023-01-11T11:38:59.582Z,3.03
2023-01-11T11:44:17.327Z,3.00
2023-01-11T11:49:19.030Z,2.70
2023-01-11T11:54:25.326Z,3.00
2023-01-11T11:59:30.171Z,2.88
2023-01-11T12:04:37.211Z,3.47
2023-01-11T12:09:44.717Z,4.13
2023-01-11T12:15:06.264Z,3.05
2023-01-11T12:20:22.973Z,3.05
2023-01-11T12:25:26.796Z,4.13
2023-01-11T12:30:57.993Z,2.88
2023-01-11T12:36:13.283Z,4.40
2023-01-11T12:41:26.430Z,3.72
2023-01-11T12:46:51.546Z,3.72
2023-01-11T12:52:18.155Z,2.25
2023-01-11T12:57:46.429Z,3.08
2023-01-11T13:03:00.076Z,2.28
2023-01-11T13:08:24.482Z,3.00
2023-01-11T13:14:02.751Z,2.75
2023-01-11T13:19:10.498Z,2.47
2023-01-11T13:24:20.216Z,2.67
2023-01-11T13:29:28.101Z,2.63
2023-01-11T13:34:34.893Z,3.42
2023-01-11T13:39:50.499Z,2.50
2023-01-11T13:45:17.301Z,3.22
2023-01-11T13:50:37.269Z,3.20
2023-01-11T13:55:48.006Z,2.90
2023-01-11T14:01:00.256Z,3.38
2023-01-11T14:06:27.452Z,2.72
2023-01-11T14:11:52.335Z,2.60
2023-01-11T14:17:33.819Z,2.65
2023-01-11T14:23:13.413Z,2.63
2023-01-11T14:28:24.356Z,3.42
2023-01-11T14:33:44.459Z,2.97
2023-01-11T14:38:51.867Z,3.15
2023-01-11T14:44:05.419Z,2.80
2023-01-11T14:49:24.948Z,2.78
2023-01-11T14:54:32.641Z,2.85
2023-01-11T14:59:39.561Z,3.17
2023-01-11T15:04:53.091Z,2.42
2023-01-11T15:09:56.373Z,3.38
2023-01-11T15:15:17.031Z,3.13
2023-01-11T15:20:21.285Z,3.25
2023-01-11T15:25:25.277Z,2.50
2023-01-11T15:30:32.755Z,4.32
2023-01-11T15:35:34.576Z,3.65
2023-01-11T15:40:41.533Z,3.60
2023-01-11T15:46:04.678Z,3.53
2023-01-11T15:51:10.118Z,2.92
2023-01-11T15:56:18.030Z,3.17
2023-01-11T16:01:26.726Z,3.30
2023-01-11T16:06:37.007Z,3.88
2023-01-11T16:12:11.155Z,4.22
2023-01-11T16:17:15.142Z,2.92
2023-01-11T16:22:17.926Z,4.38
2023-01-11T16:27:34.582Z,3.05
2023-01-11T16:32:36.131Z,2.97
2023-01-11T16:37:46.624Z,3.20
2023-01-11T16:42:51.159Z,3.75
2023-01-11T16:48:03.555Z,3.28
2023-01-11T16:53:12.720Z,3.15
2023-01-11T16:58:29.101Z,2.78
2023-01-11T17:03:36.294Z,3.15
2023-01-11T17:08:42.885Z,2.30
2023-01-11T17:13:53.440Z,2.65
2023-01-11T17:18:55.195Z,2.88
2023-01-11T17:24:03.731Z,3.30
2023-01-11T17:29:05.975Z,3.58
2023-01-11T17:34:23.668Z,3.05
2023-01-11T17:39:32.052Z,3.00
2023-01-11T17:44:33.865Z,2.10
2023-01-11T17:49:37.655Z,1.67
2023-01-11T17:54:39.462Z,2.45
2023-01-11T17:59:41.005Z,2.20
2023-01-11T18:04:42.725Z,2.00
2023-01-11T18:09:47.697Z,1.75
2023-01-11T18:15:00.768Z,2.17
2023-01-11T18:20:16.268Z,2.30
2023-01-11T18:25:29.635Z,2.88
2023-01-11T18:30:31.113Z,2.17
2023-01-11T18:35:42.111Z,2.28
2023-01-11T18:40:45.076Z,1.98
2023-01-11T18:45:46.647Z,2.38
2023-01-11T18:50:49.779Z,2.00
2023-01-11T18:55:51.313Z,1.75
2023-01-11T19:00:52.786Z,2.50
2023-01-11T19:05:54.272Z,2.72
2023-01-11T19:10:56.018Z,2.13
2023-01-11T19:16:00.434Z,3.03
2023-01-11T19:21:03.627Z,2.45
2023-01-11T19:26:05.168Z,2.47
2023-01-11T19:31:09.515Z,2.88
2023-01-11T19:36:11.343Z,3.33
2023-01-11T19:41:15.390Z,2.47
2023-01-11T19:46:30.090Z,2.88
2023-01-11T19:51:32.781Z,3.10
2023-01-11T19:56:34.440Z,3.10
2023-01-11T20:01:35.967Z,3.28
2023-01-11T20:06:42.690Z,3.10
2023-01-11T20:11:44.967Z,2.97
2023-01-11T20:16:46.575Z,2.13
2023-01-11T20:21:55.650Z,4.38
2023-01-11T20:26:59.503Z,3.45
2023-01-11T20:32:27.753Z,3.55
2023-01-11T20:37:25.343Z,3.47
2023-01-11T20:42:26.708Z,3.33
2023-01-11T20:47:30.087Z,3.45
2023-01-11T20:52:31.578Z,3.25
2023-01-11T20:57:32.985Z,3.53
2023-01-11T21:02:34.381Z,3.00
2023-01-11T21:07:36.048Z,3.55
2023-01-11T21:17:37.855Z,3.03
2023-01-11T21:22:39.344Z,3.15
2023-01-11T21:27:40.851Z,2.40
2023-01-11T21:32:42.341Z,2.40
2023-01-11T21:37:43.764Z,1.60
2023-01-11T21:42:45.316Z,2.78
2023-01-11T21:47:47.329Z,2.70
2023-01-11T21:52:50.315Z,2.33
2023-01-11T21:57:51.803Z,2.40
2023-01-11T22:02:53.277Z,1.98
2023-01-11T22:07:56.573Z,1.95
2023-01-11T22:12:58.277Z,2.42
2023-01-11T22:17:59.893Z,1.88
2023-01-11T22:23:01.385Z,3.10
2023-01-11T22:28:02.774Z,2.50
2023-01-11T22:33:04.253Z,2.42
2023-01-11T22:38:05.644Z,2.83
2023-01-11T22:43:07.141Z,1.63
2023-01-11T22:48:08.461Z,1.42
2023-01-11T22:53:09.816Z,2.05
2023-01-11T22:58:14.036Z,2.15
2023-01-11T23:03:18.607Z,1.95
2023-01-11T23:08:20.048Z,1.77
2023-01-11T23:13:21.818Z,2.65
2023-01-11T23:18:23.285Z,1.95
2023-01-11T23:23:27.706Z,1.73
2023-01-11T23:28:29.084Z,1.73
2023-01-11T23:33:30.453Z,1.70
2023-01-11T23:38:32.138Z,2.08
2023-01-11T23:43:37.072Z,1.90
2023-01-11T23:48:38.491Z,2.45
2023-01-11T23:53:40.107Z,1.73
2023-01-11T23:58:41.568Z,2.05
